createdAt,value
2018-04-15T00:00:33.101Z,12.67
2018-04-15T00:03:00.594Z,12.67
2018-04-15T00:05:28.093Z,12.69
2018-04-15T00:07:55.585Z,12.66
2018-04-15T00:10:23.110Z,12.66
2018-04-15T00:12:50.585Z,12.70
2018-04-15T00:15:18.065Z,12.55
2018-04-15T00:17:45.589Z,12.70
2018-04-15T00:20:13.066Z,12.60
2018-04-15T00:22:40.885Z,12.72
2018-04-15T00:25:08.401Z,12.69
2018-04-15T00:27:35.885Z,12.67
2018-04-15T00:30:03.397Z,12.71
2018-04-15T00:32:30.885Z,12.77
2018-04-15T00:34:58.576Z,12.68
2018-04-15T00:37:26.056Z,12.68
2018-04-15T00:39:53.539Z,12.86
2018-04-15T00:42:21.041Z,12.73
2018-04-15T00:44:48.529Z,12.77
2018-04-15T00:47:16.061Z,12.63
2018-04-15T00:49:43.553Z,12.70
2018-04-15T00:52:11.041Z,12.57
2018-04-15T00:54:38.570Z,12.52
2018-04-15T00:57:06.053Z,12.45
2018-04-15T00:59:33.569Z,12.37
2018-04-15T01:02:01.101Z,12.32
2018-04-15T01:04:28.577Z,12.54
2018-04-15T01:06:56.097Z,12.52
2018-04-15T01:09:23.676Z,12.65
2018-04-15T01:11:51.368Z,12.76
2018-04-15T01:14:18.849Z,12.81
2018-04-15T01:16:46.385Z,12.77
2018-04-15T01:19:13.884Z,12.88
2018-04-15T01:21:41.383Z,12.80
2018-04-15T01:24:08.897Z,12.86
2018-04-15T01:26:36.409Z,12.59
2018-04-15T01:29:03.896Z,12.60
2018-04-15T01:31:31.401Z,12.84
2018-04-15T01:33:58.885Z,12.76
2018-04-15T01:36:26.837Z,12.70
2018-04-15T01:38:54.322Z,12.83
2018-04-15T01:41:21.873Z,12.85
2018-04-15T01:43:49.373Z,12.83
2018-04-15T01:46:16.868Z,12.88
2018-04-15T01:48:44.573Z,12.93
2018-04-15T01:51:12.073Z,12.93
2018-04-15T01:53:39.552Z,13.03
2018-04-15T01:56:07.134Z,12.83
2018-04-15T01:58:34.634Z,12.81
2018-04-15T02:01:02.353Z,12.70
2018-04-15T02:03:29.833Z,12.76
2018-04-15T02:05:57.313Z,12.75
2018-04-15T02:08:24.824Z,12.80
2018-04-15T02:10:52.305Z,12.98
2018-04-15T02:13:19.942Z,12.92
2018-04-15T02:15:47.417Z,12.94
2018-04-15T02:18:14.910Z,12.99
2018-04-15T02:20:42.416Z,12.95
2018-04-15T02:23:09.896Z,12.89
2018-04-15T02:25:37.770Z,12.81
2018-04-15T02:28:05.248Z,12.82
2018-04-15T02:30:32.729Z,12.80
2018-04-15T02:33:00.245Z,12.72
2018-04-15T02:35:27.722Z,12.76
2018-04-15T02:37:55.241Z,12.83
2018-04-15T02:40:22.725Z,12.94
2018-04-15T02:42:50.433Z,12.82
2018-04-15T02:45:17.940Z,12.83
2018-04-15T02:47:45.416Z,12.83
2018-04-15T02:50:12.973Z,12.68
2018-04-15T02:52:40.462Z,12.96
2018-04-15T02:55:07.971Z,12.89
2018-04-15T02:57:35.477Z,12.96
2018-04-15T03:00:02.973Z,12.85
2018-04-15T03:02:30.760Z,12.94
2018-04-15T03:04:58.245Z,12.90
2018-04-15T03:07:25.729Z,13.04
2018-04-15T03:09:53.241Z,13.15
2018-04-15T03:12:20.740Z,13.28
2018-04-15T03:14:48.396Z,13.23
2018-04-15T03:17:15.881Z,13.16
2018-04-15T03:19:43.364Z,13.09
2018-04-15T03:22:10.869Z,12.95
2018-04-15T03:24:38.363Z,13.04
2018-04-15T03:27:05.889Z,13.04
2018-04-15T03:29:33.388Z,12.81
2018-04-15T03:32:00.874Z,12.86
2018-04-15T03:34:28.377Z,12.75
2018-04-15T03:36:55.877Z,12.69
2018-04-15T03:39:23.597Z,12.85
2018-04-15T03:41:51.112Z,12.67
2018-04-15T03:44:18.593Z,12.55
2018-04-15T03:46:46.093Z,12.60
2018-04-15T03:49:13.581Z,12.77
2018-04-15T03:51:41.250Z,12.80
2018-04-15T03:54:08.737Z,12.79
2018-04-15T03:56:36.243Z,12.78
2018-04-15T03:59:03.745Z,12.83
2018-04-15T04:01:31.244Z,12.65
2018-04-15T04:03:58.765Z,12.78
2018-04-15T04:06:26.245Z,12.78
2018-04-15T04:08:53.740Z,12.82
2018-04-15T04:11:21.281Z,12.80
2018-04-15T04:13:48.767Z,12.75
2018-04-15T04:16:16.307Z,12.80
2018-04-15T04:18:55.625Z,12.73
2018-04-15T04:21:35.259Z,12.57
2018-04-15T04:24:14.625Z,12.61
2018-04-15T04:26:42.389Z,12.68
2018-04-15T04:29:09.891Z,12.62
2018-04-15T04:31:37.388Z,12.65
2018-04-15T04:34:04.895Z,12.62
2018-04-15T04:36:32.388Z,12.57
2018-04-15T04:39:00.252Z,12.60
2018-04-15T04:41:27.732Z,12.53
2018-04-15T04:43:55.317Z,12.69
2018-04-15T04:46:22.828Z,12.75
2018-04-15T04:48:50.316Z,12.69
2018-04-15T04:51:17.877Z,12.81
2018-04-15T04:53:45.378Z,13.01
2018-04-15T04:56:12.859Z,13.35
2018-04-15T04:58:40.368Z,13.26
2018-04-15T05:01:07.844Z,13.12
2018-04-15T05:03:35.392Z,12.99
2018-04-15T05:06:02.873Z,12.96
2018-04-15T05:08:30.352Z,13.01
2018-04-15T05:10:57.855Z,12.97
2018-04-15T05:13:25.373Z,13.43
2018-04-15T05:15:53.005Z,12.94
2018-04-15T05:18:20.484Z,13.15
2018-04-15T05:20:53.921Z,13.67
2018-04-15T05:23:21.425Z,13.66
2018-04-15T05:25:48.918Z,13.66
2018-04-15T05:28:16.421Z,13.49
2018-04-15T05:30:43.905Z,13.00
2018-04-15T05:33:11.553Z,12.84
2018-04-15T05:35:39.142Z,12.82
2018-04-15T05:38:06.801Z,12.92
2018-04-15T05:40:34.341Z,12.94
2018-04-15T05:43:01.868Z,12.87
2018-04-15T05:45:29.408Z,13.08
2018-04-15T05:47:56.910Z,12.98
2018-04-15T05:50:24.389Z,12.82
2018-04-15T05:52:51.888Z,12.80
2018-04-15T05:55:19.380Z,12.74
2018-04-15T05:57:47.058Z,12.75
2018-04-15T06:00:14.545Z,12.74
2018-04-15T06:02:42.047Z,12.74
2018-04-15T06:05:09.553Z,12.76
2018-04-15T06:07:37.033Z,12.84
2018-04-15T06:10:04.557Z,12.62
2018-04-15T06:12:32.045Z,12.61
2018-04-15T06:14:59.557Z,12.82
2018-04-15T06:17:27.060Z,13.09
2018-04-15T06:19:54.618Z,12.94
2018-04-15T06:22:22.129Z,13.07
2018-04-15T06:24:49.620Z,13.07
2018-04-15T06:27:17.116Z,13.27
2018-04-15T06:29:44.619Z,13.28
2018-04-15T06:32:12.107Z,13.47
2018-04-15T06:34:39.635Z,13.43
2018-04-15T06:37:07.137Z,13.69
2018-04-15T06:39:34.618Z,13.63
2018-04-15T06:42:02.125Z,13.63
2018-04-15T06:44:29.605Z,13.74
2018-04-15T06:46:57.127Z,13.69
2018-04-15T06:49:24.665Z,13.66
2018-04-15T06:51:52.161Z,13.85
2018-04-15T06:54:19.668Z,13.82
2018-04-15T06:56:47.161Z,13.76
2018-04-15T06:59:14.691Z,13.89
2018-04-15T07:01:42.172Z,14.11
2018-04-15T07:04:09.653Z,14.09
2018-04-15T07:06:37.159Z,14.35
2018-04-15T07:09:07.285Z,14.21
2018-04-15T07:11:34.805Z,14.41
2018-04-15T07:14:02.301Z,14.41
2018-04-15T07:16:29.852Z,14.47
2018-04-15T07:18:57.361Z,14.62
2018-04-15T07:21:24.857Z,14.65
2018-04-15T07:23:52.725Z,14.65
2018-04-15T07:26:20.209Z,14.53
2018-04-15T07:28:47.694Z,14.47
2018-04-15T07:31:15.221Z,14.53
2018-04-15T07:33:42.739Z,14.44
2018-04-15T07:36:10.445Z,15.01
2018-04-15T07:38:37.925Z,15.10
2018-04-15T07:41:05.411Z,15.09
2018-04-15T07:43:32.930Z,15.01
2018-04-15T07:46:00.456Z,15.46
2018-04-15T07:48:28.218Z,15.58
2018-04-15T07:50:55.698Z,15.41
2018-04-15T07:53:23.193Z,15.56
2018-04-15T07:55:50.694Z,15.88
2018-04-15T07:58:18.177Z,15.58
2018-04-15T08:00:45.881Z,15.58
2018-04-15T08:03:13.363Z,15.60
2018-04-15T08:05:40.860Z,15.67
2018-04-15T08:08:08.371Z,15.98
2018-04-15T08:10:35.848Z,15.74
2018-04-15T08:13:03.733Z,15.66
2018-04-15T08:15:31.220Z,15.89
2018-04-15T08:17:58.727Z,15.76
2018-04-15T08:20:26.265Z,15.88
2018-04-15T08:22:53.748Z,16.24
2018-04-15T08:25:21.500Z,16.27
2018-04-15T08:27:49.079Z,16.12
2018-04-15T08:30:16.605Z,16.60
2018-04-15T08:32:44.113Z,17.06
2018-04-15T08:35:11.597Z,16.91
2018-04-15T08:37:39.110Z,17.00
2018-04-15T08:40:06.593Z,17.13
2018-04-15T08:42:34.077Z,17.60
2018-04-15T08:45:01.585Z,17.02
2018-04-15T08:47:29.069Z,16.79
2018-04-15T08:49:56.693Z,16.68
2018-04-15T08:52:24.187Z,17.29
2018-04-15T08:54:51.677Z,16.80
2018-04-15T08:57:19.201Z,16.92
2018-04-15T08:59:46.690Z,16.95
2018-04-15T09:02:14.353Z,17.30
2018-04-15T09:04:41.853Z,18.13
2018-04-15T09:07:09.332Z,17.94
2018-04-15T09:09:36.842Z,17.46
2018-04-15T09:12:04.317Z,18.19
2018-04-15T09:14:31.985Z,17.87
2018-04-15T09:16:59.461Z,17.88
2018-04-15T09:19:26.957Z,18.00
2018-04-15T09:21:54.937Z,17.75
2018-04-15T09:24:22.430Z,18.33
2018-04-15T09:26:50.114Z,17.74
2018-04-15T09:29:17.620Z,17.91
2018-04-15T09:31:45.121Z,17.94
2018-04-15T09:34:12.665Z,18.05
2018-04-15T09:36:40.181Z,17.97
2018-04-15T09:39:07.749Z,18.12
2018-04-15T09:41:35.228Z,18.25
2018-04-15T09:44:02.705Z,18.35
2018-04-15T09:46:30.245Z,18.69
2018-04-15T09:48:57.730Z,18.92
2018-04-15T09:51:25.269Z,18.48
2018-04-15T09:53:52.846Z,18.61
2018-04-15T09:56:20.347Z,18.43
2018-04-15T09:58:47.881Z,18.32
2018-04-15T10:01:17.161Z,19.02
2018-04-15T10:03:44.769Z,19.16
2018-04-15T10:06:12.257Z,18.81
2018-04-15T10:08:40.633Z,19.45
2018-04-15T10:11:08.145Z,19.36
2018-04-15T10:13:35.637Z,19.37
2018-04-15T10:16:03.466Z,18.96
2018-04-15T10:18:30.978Z,19.42
2018-04-15T10:20:58.485Z,19.44
2018-04-15T10:23:25.997Z,19.42
2018-04-15T10:25:53.474Z,19.89
2018-04-15T10:28:21.339Z,19.96
2018-04-15T10:30:48.821Z,20.38
2018-04-15T10:33:16.325Z,20.84
2018-04-15T10:35:43.838Z,20.64
2018-04-15T10:38:11.338Z,20.10
2018-04-15T10:40:38.882Z,20.40
2018-04-15T10:43:06.399Z,19.90
2018-04-15T10:45:33.892Z,20.00
2018-04-15T10:48:01.427Z,20.43
2018-04-15T10:50:28.925Z,20.19
2018-04-15T10:52:56.636Z,20.26
2018-04-15T10:55:24.117Z,20.54
2018-04-15T10:57:51.643Z,21.13
2018-04-15T11:00:19.195Z,20.54
2018-04-15T11:02:46.722Z,20.74
2018-04-15T11:05:14.493Z,20.93
2018-04-15T11:07:41.985Z,20.84
2018-04-15T11:10:09.573Z,20.06
2018-04-15T11:12:37.689Z,19.68
2018-04-15T11:15:05.178Z,20.00
2018-04-15T11:17:32.701Z,20.07
2018-04-15T11:20:00.223Z,20.38
2018-04-15T11:22:27.707Z,20.75
2018-04-15T11:24:55.214Z,20.98
2018-04-15T11:27:22.709Z,21.37
2018-04-15T11:29:50.325Z,20.65
2018-04-15T11:32:17.869Z,20.36
2018-04-15T11:34:45.421Z,20.72
2018-04-15T11:37:12.934Z,20.30
2018-04-15T11:39:40.425Z,20.34
2018-04-15T11:42:08.112Z,19.95
2018-04-15T11:44:35.593Z,20.30
2018-04-15T11:47:03.106Z,20.20
2018-04-15T11:49:30.605Z,20.42
2018-04-15T11:51:58.114Z,20.33
2018-04-15T11:54:25.637Z,20.24
2018-04-15T11:56:53.114Z,20.61
2018-04-15T11:59:20.606Z,20.65
2018-04-15T12:01:48.133Z,20.92
2018-04-15T12:04:15.618Z,21.39
2018-04-15T12:06:43.161Z,21.22
2018-04-15T12:09:10.650Z,21.21
2018-04-15T12:11:38.129Z,21.61
2018-04-15T12:14:05.637Z,21.61
2018-04-15T12:16:33.117Z,21.86
2018-04-15T12:19:00.645Z,22.12
2018-04-15T12:21:28.141Z,21.65
2018-04-15T12:23:55.628Z,21.60
2018-04-15T12:26:23.136Z,21.96
2018-04-15T12:28:50.637Z,22.02
2018-04-15T12:31:18.189Z,21.95
2018-04-15T12:33:45.693Z,22.50
2018-04-15T12:36:13.205Z,22.10
2018-04-15T12:38:40.707Z,21.86
2018-04-15T12:41:08.209Z,21.21
2018-04-15T12:43:35.722Z,21.19
2018-04-15T12:46:03.197Z,21.85
2018-04-15T12:48:30.669Z,22.11
2018-04-15T12:50:58.173Z,22.05
2018-04-15T12:53:25.653Z,22.32
2018-04-15T12:55:53.179Z,22.08
2018-04-15T12:58:20.667Z,22.57
2018-04-15T13:00:48.157Z,22.57
2018-04-15T13:03:15.657Z,22.24
2018-04-15T13:05:43.146Z,22.64
2018-04-15T13:08:10.865Z,22.68
2018-04-15T13:10:38.349Z,22.71
2018-04-15T13:13:05.821Z,22.36
2018-04-15T13:15:33.338Z,21.97
2018-04-15T13:18:00.821Z,22.17
2018-04-15T13:20:30.157Z,22.26
2018-04-15T13:22:57.639Z,21.70
2018-04-15T13:25:25.149Z,21.62
2018-04-15T13:27:52.674Z,21.79
2018-04-15T13:30:20.152Z,21.94
2018-04-15T13:32:47.779Z,22.23
2018-04-15T13:35:15.257Z,22.82
2018-04-15T13:37:42.737Z,22.86
2018-04-15T13:40:10.239Z,22.32
2018-04-15T13:42:38.199Z,22.36
2018-04-15T13:45:05.976Z,21.91
2018-04-15T13:47:33.461Z,21.92
2018-04-15T13:50:00.961Z,21.60
2018-04-15T13:52:28.473Z,21.32
2018-04-15T13:54:55.949Z,21.64
2018-04-15T13:57:23.622Z,22.09
2018-04-15T13:59:51.107Z,21.35
2018-04-15T14:02:18.592Z,21.69
2018-04-15T14:04:46.199Z,21.66
2018-04-15T14:07:13.719Z,21.41
2018-04-15T14:09:41.387Z,21.56
2018-04-15T14:12:08.899Z,21.35
2018-04-15T14:14:36.589Z,21.11
2018-04-15T14:17:04.130Z,20.83
2018-04-15T14:19:31.615Z,20.91
2018-04-15T14:21:59.135Z,20.84
2018-04-15T14:24:26.633Z,20.64
2018-04-15T14:26:54.117Z,20.57
2018-04-15T14:29:21.661Z,20.82
2018-04-15T14:31:49.132Z,20.68
2018-04-15T14:34:16.644Z,20.74
2018-04-15T14:36:44.119Z,20.89
2018-04-15T14:39:11.593Z,21.00
2018-04-15T14:41:39.099Z,21.29
2018-04-15T14:44:06.582Z,21.36
2018-04-15T14:46:34.229Z,21.15
2018-04-15T14:49:01.737Z,21.19
2018-04-15T14:51:29.241Z,21.53
2018-04-15T14:53:56.753Z,21.64
2018-04-15T14:56:24.229Z,21.37
2018-04-15T14:58:51.753Z,21.41
2018-04-15T15:01:19.245Z,21.04
2018-04-15T15:03:46.737Z,20.95
2018-04-15T15:06:14.245Z,20.60
2018-04-15T15:08:41.720Z,20.70
2018-04-15T15:11:09.546Z,20.65
2018-04-15T15:13:37.024Z,20.73
2018-04-15T15:16:04.510Z,20.80
2018-04-15T15:18:32.026Z,20.67
2018-04-15T15:20:59.548Z,20.62
2018-04-15T15:23:27.073Z,20.80
2018-04-15T15:25:54.569Z,20.97
2018-04-15T15:28:22.078Z,21.11
2018-04-15T15:30:49.602Z,21.02
2018-04-15T15:33:17.105Z,21.01
2018-04-15T15:35:44.629Z,20.96
2018-04-15T15:38:12.115Z,20.96
2018-04-15T15:40:39.628Z,20.92
2018-04-15T15:43:07.138Z,20.95
2018-04-15T15:45:34.625Z,21.09
2018-04-15T15:48:02.316Z,21.24
2018-04-15T15:50:29.797Z,20.91
2018-04-15T15:52:57.317Z,20.78
2018-04-15T15:55:24.841Z,20.87
2018-04-15T15:57:52.341Z,20.82
2018-04-15T16:00:19.857Z,21.07
2018-04-15T16:02:47.354Z,21.01
2018-04-15T16:05:14.829Z,20.99
2018-04-15T16:07:42.326Z,21.01
2018-04-15T16:10:09.906Z,21.07
2018-04-15T16:12:37.618Z,20.94
2018-04-15T16:15:05.117Z,21.19
2018-04-15T16:17:32.602Z,20.93
2018-04-15T16:20:00.144Z,20.69
2018-04-15T16:22:27.617Z,20.78
2018-04-15T16:24:55.169Z,20.65
2018-04-15T16:27:22.653Z,20.75
2018-04-15T16:29:50.130Z,20.76
2018-04-15T16:32:17.634Z,20.77
2018-04-15T16:34:45.121Z,20.69
2018-04-15T16:37:13.579Z,20.83
2018-04-15T16:39:41.062Z,20.86
2018-04-15T16:42:08.545Z,20.84
2018-04-15T16:44:36.053Z,20.85
2018-04-15T16:47:03.538Z,20.85
2018-04-15T16:49:31.320Z,20.87
2018-04-15T16:51:58.797Z,20.86
2018-04-15T16:54:26.281Z,20.79
2018-04-15T16:56:53.801Z,20.63
2018-04-15T16:59:21.282Z,20.47
2018-04-15T17:01:48.895Z,20.54
2018-04-15T17:04:16.535Z,20.51
2018-04-15T17:06:44.009Z,20.55
2018-04-15T17:09:11.543Z,20.55
2018-04-15T17:11:39.047Z,20.61
2018-04-15T17:14:06.714Z,20.61
2018-04-15T17:16:34.403Z,20.49
2018-04-15T17:19:01.886Z,20.61
2018-04-15T17:21:29.437Z,20.46
2018-04-15T17:23:56.973Z,20.48
2018-04-15T17:26:24.683Z,20.36
2018-04-15T17:28:52.167Z,20.19
2018-04-15T17:31:19.658Z,20.28
2018-04-15T17:33:47.169Z,20.35
2018-04-15T17:36:14.650Z,20.36
2018-04-15T17:38:42.189Z,20.37
2018-04-15T17:41:09.666Z,20.31
2018-04-15T17:43:37.156Z,20.32
2018-04-15T17:46:04.677Z,20.25
2018-04-15T17:48:33.178Z,20.26
2018-04-15T17:51:00.726Z,20.22
2018-04-15T17:53:28.214Z,20.16
2018-04-15T17:55:55.812Z,20.45
2018-04-15T17:58:23.456Z,20.35
2018-04-15T18:00:50.969Z,20.31
2018-04-15T18:03:18.513Z,20.29
2018-04-15T18:05:46.005Z,20.06
2018-04-15T18:08:13.498Z,20.04
2018-04-15T18:10:41.014Z,20.14
2018-04-15T18:13:08.505Z,20.35
2018-04-15T18:15:36.202Z,20.00
2018-04-15T18:18:03.714Z,19.77
2018-04-15T18:20:31.206Z,19.72
2018-04-15T18:22:58.722Z,19.75
2018-04-15T18:25:26.979Z,19.60
2018-04-15T18:27:54.509Z,19.56
2018-04-15T18:30:22.032Z,19.33
2018-04-15T18:32:49.533Z,19.24
2018-04-15T18:35:17.119Z,19.15
2018-04-15T18:37:44.623Z,19.46
2018-04-15T18:40:12.378Z,19.40
2018-04-15T18:42:40.061Z,19.03
2018-04-15T18:45:07.639Z,19.28
2018-04-15T18:47:35.277Z,19.02
2018-04-15T18:50:02.838Z,18.63
2018-04-15T18:52:31.069Z,19.11
2018-04-15T18:54:58.761Z,18.19
2018-04-15T18:57:26.729Z,17.66
2018-04-15T18:59:54.367Z,17.50
2018-04-15T19:02:21.970Z,17.97
2018-04-15T19:04:49.947Z,17.92
2018-04-15T19:07:17.636Z,18.00
2018-04-15T19:09:45.277Z,17.73
2018-04-15T19:12:13.652Z,17.32
2018-04-15T19:14:41.889Z,17.26
2018-04-15T19:17:10.365Z,16.79
2018-04-15T19:19:38.371Z,16.83
2018-04-15T19:22:06.854Z,16.94
2018-04-15T19:24:35.324Z,16.96
2018-04-15T19:27:03.737Z,17.07
2018-04-15T19:29:32.213Z,17.17
2018-04-15T19:32:00.420Z,17.20
2018-04-15T19:34:28.508Z,17.01
2018-04-15T19:36:56.795Z,16.99
2018-04-15T19:39:25.877Z,16.93
2018-04-15T19:41:54.209Z,17.00
2018-04-15T19:44:22.557Z,17.18
2018-04-15T19:46:50.778Z,17.32
2018-04-15T19:49:19.162Z,17.31
2018-04-15T19:51:47.780Z,17.22
2018-04-15T19:54:16.244Z,17.05
2018-04-15T19:56:44.724Z,16.77
2018-04-15T19:59:12.512Z,16.80
2018-04-15T20:01:41.221Z,16.72
2018-04-15T20:04:09.279Z,16.54
2018-04-15T20:06:37.853Z,16.24
2018-04-15T20:09:06.270Z,16.07
2018-04-15T20:11:34.778Z,16.15
2018-04-15T20:14:02.410Z,16.17
2018-04-15T20:16:30.127Z,16.38
2018-04-15T20:18:58.630Z,16.34
2018-04-15T20:21:26.378Z,16.41
2018-04-15T20:23:54.360Z,16.41
2018-04-15T20:26:22.154Z,16.49
2018-04-15T20:28:49.688Z,16.64
2018-04-15T20:31:17.475Z,16.52
2018-04-15T20:33:45.155Z,16.40
2018-04-15T20:36:12.669Z,16.41
2018-04-15T20:38:40.182Z,16.46
2018-04-15T20:41:07.669Z,16.50
2018-04-15T20:43:35.641Z,16.41
2018-04-15T20:46:03.124Z,16.26
2018-04-15T20:48:30.615Z,16.36
2018-04-15T20:50:58.144Z,16.49
2018-04-15T20:53:25.637Z,16.46
2018-04-15T20:55:53.405Z,16.45
2018-04-15T20:58:20.897Z,16.42
2018-04-15T21:00:48.414Z,16.72
2018-04-15T21:03:15.918Z,16.88
2018-04-15T21:05:43.458Z,16.84
2018-04-15T21:08:11.157Z,16.59
2018-04-15T21:10:38.638Z,16.77
2018-04-15T21:13:06.119Z,16.48
2018-04-15T21:15:33.646Z,16.42
2018-04-15T21:18:01.121Z,16.48
2018-04-15T21:20:28.653Z,16.24
2018-04-15T21:22:56.133Z,16.32
2018-04-15T21:25:23.648Z,16.28
2018-04-15T21:27:51.154Z,16.23
2018-04-15T21:30:18.629Z,16.28
2018-04-15T21:32:46.293Z,16.10
2018-04-15T21:35:13.789Z,16.26
2018-04-15T21:37:41.265Z,16.25
2018-04-15T21:40:08.795Z,16.13
2018-04-15T21:42:36.277Z,16.21
2018-04-15T21:45:03.925Z,16.16
2018-04-15T21:47:31.405Z,16.17
2018-04-15T21:49:58.885Z,15.99
2018-04-15T21:52:26.389Z,16.06
2018-04-15T21:54:53.865Z,16.05
2018-04-15T21:57:21.565Z,16.21
2018-04-15T21:59:49.066Z,16.46
2018-04-15T22:02:16.547Z,16.36
2018-04-15T22:04:44.076Z,16.48
2018-04-15T22:07:11.577Z,16.26
2018-04-15T22:09:39.101Z,16.15
2018-04-15T22:12:15.204Z,16.06
2018-04-15T22:14:42.742Z,15.78
2018-04-15T22:17:10.229Z,15.84
2018-04-15T22:19:37.710Z,15.82
2018-04-15T22:22:05.213Z,15.77
2018-04-15T22:24:32.706Z,15.79
2018-04-15T22:27:00.305Z,15.67
2018-04-15T22:29:27.804Z,15.60
2018-04-15T22:31:55.280Z,15.68
2018-04-15T22:34:22.805Z,15.68
2018-04-15T22:36:50.286Z,15.53
2018-04-15T22:39:17.980Z,15.52
2018-04-15T22:41:45.473Z,15.47
2018-04-15T22:44:12.948Z,15.35
2018-04-15T22:46:40.464Z,15.32
2018-04-15T22:49:13.633Z,15.25
2018-04-15T22:51:41.419Z,15.26
2018-04-15T22:54:08.894Z,15.20
2018-04-15T22:56:42.171Z,15.18
2018-04-15T22:59:09.649Z,15.00
2018-04-15T23:01:37.124Z,15.04
2018-04-15T23:04:04.625Z,14.98
2018-04-15T23:06:32.101Z,14.90
2018-04-15T23:08:59.901Z,14.75
2018-04-15T23:11:27.417Z,14.67
2018-04-15T23:13:54.896Z,14.64
2018-04-15T23:16:22.412Z,14.41
2018-04-15T23:18:49.888Z,14.48
2018-04-15T23:21:17.484Z,14.43
2018-04-15T23:23:44.974Z,14.38
2018-04-15T23:26:12.457Z,14.36
2018-04-15T23:28:39.989Z,14.30
2018-04-15T23:31:07.472Z,14.27
2018-04-15T23:33:35.321Z,14.22
2018-04-15T23:36:02.825Z,14.28
2018-04-15T23:38:30.297Z,14.32
2018-04-15T23:40:57.801Z,14.14
2018-04-15T23:43:25.281Z,14.03
2018-04-15T23:45:52.973Z,14.04
2018-04-15T23:48:20.453Z,14.08
2018-04-15T23:50:47.938Z,13.96
2018-04-15T23:53:15.448Z,13.94
2018-04-15T23:55:42.933Z,13.93
2018-04-15T23:58:10.732Z,13.63
